Time;durP1;ratioP1;P1;durP2;ratioP2;P2;SDS_P1;SDS_P2;PMS_P1;PMS_P2;Temp;Humidity;BMP_temperature;BMP_pressure;BME280_temperature;BME280_humidity;BME280_pressure;Samples;Min_cycle;Max_cycle;Signal;HPM_P1;HPM_P2
2023/10/05 00:03:43;;;;;;;;;;;14.60;78.00;;;;;;5064656;28;19966;-79
2023/10/05 00:06:16;;;;;;;;;;;14.60;78.30;;;;;;5064159;28;19946;-79
2023/10/05 00:08:47;;;;;;;;;;;14.60;78.10;;;;;;5078547;28;19939;-78
2023/10/05 00:11:29;;;;;;;;;;;14.60;78.10;;;;;;5080073;28;19908;-79
2023/10/05 00:13:57;;;;;;;;;;;14.60;77.90;;;;;;5076974;28;19923;-79
2023/10/05 00:16:22;;;;;;;;;;;14.60;78.40;;;;;;5080291;28;19944;-79
2023/10/05 00:18:49;;;;;;;;;;;14.60;78.00;;;;;;5094253;28;19923;-78
2023/10/05 00:21:18;;;;;;;;;;;14.60;77.80;;;;;;5074677;28;20300;-79
2023/10/05 00:23:43;;;;;;;;;;;14.60;78.00;;;;;;5095836;28;19971;-80
2023/10/05 00:26:09;;;;;;;;;;;14.60;78.10;;;;;;5081704;28;19912;-80
2023/10/05 00:28:35;;;;;;;;;;;14.60;78.10;;;;;;5081812;28;19966;-80
2023/10/05 00:31:03;;;;;;;;;;;14.50;78.40;;;;;;5083725;28;19916;-79
2023/10/05 00:33:28;;;;;;;;;;;14.60;77.80;;;;;;5074222;28;20329;-79
2023/10/05 00:35:54;;;;;;;;;;;14.70;77.40;;;;;;5073913;28;19934;-79
2023/10/05 00:38:20;;;;;;;;;;;14.80;77.60;;;;;;5073343;28;19913;-77
2023/10/05 00:41:01;;;;;;;;;;;14.90;77.00;;;;;;5072728;28;19917;-79
2023/10/05 00:43:27;;;;;;;;;;;14.80;77.10;;;;;;5068514;28;20011;-79
2023/10/05 00:45:54;;;;;;;;;;;14.80;77.40;;;;;;5071568;28;20420;-79
2023/10/05 00:51:25;;;;;;;;;;;14.80;77.00;;;;;;5060750;28;19966;-79
2023/10/05 00:53:52;;;;;;;;;;;14.80;77.20;;;;;;5071483;28;19912;-79
2023/10/05 00:56:22;;;;;;;;;;;14.90;77.20;;;;;;5068926;28;20019;-79
2023/10/05 00:58:50;;;;;;;;;;;14.80;77.10;;;;;;5072632;28;20015;-78
2023/10/05 01:01:22;;;;;;;;;;;14.70;77.10;;;;;;5074888;28;19913;-78
2023/10/05 01:06:37;;;;;;;;;;;14.80;77.30;;;;;;5075138;28;19916;-79
2023/10/05 01:09:04;;;;;;;;;;;14.70;77.50;;;;;;5066876;28;20345;-79
2023/10/05 01:11:44;;;;;;;;;;;14.70;77.50;;;;;;5068878;28;19955;-79
2023/10/05 01:14:15;;;;;;;;;;;14.70;77.40;;;;;;5073989;28;19920;-79
2023/10/05 01:16:42;;;;;;;;;;;14.70;77.20;;;;;;5073553;28;19999;-78
2023/10/05 01:19:08;;;;;;;;;;;14.70;77.80;;;;;;5069598;28;19920;-79
2023/10/05 01:21:34;;;;;;;;;;;14.70;77.70;;;;;;5068764;28;19912;-79
2023/10/05 01:24:00;;;;;;;;;;;14.80;77.00;;;;;;5071708;28;19916;-79
2023/10/05 01:26:25;;;;;;;;;;;14.80;77.30;;;;;;5075251;28;19920;-78
2023/10/05 01:28:51;;;;;;;;;;;14.70;77.60;;;;;;5074646;28;19916;-79
2023/10/05 01:31:16;;;;;;;;;;;14.70;77.40;;;;;;5074738;28;19924;-77
2023/10/05 01:33:43;;;;;;;;;;;14.70;77.50;;;;;;5071258;28;20016;-79
2023/10/05 01:36:10;;;;;;;;;;;14.70;77.20;;;;;;5073753;28;19943;-80
2023/10/05 01:38:37;;;;;;;;;;;14.70;77.60;;;;;;5067023;28;19982;-78
2023/10/05 01:41:07;;;;;;;;;;;14.70;77.60;;;;;;5072789;28;19913;-79
2023/10/05 01:43:34;;;;;;;;;;;14.60;78.00;;;;;;5074182;28;19958;-79
2023/10/05 01:45:59;;;;;;;;;;;14.60;77.90;;;;;;5087701;28;19988;-80
2023/10/05 01:48:28;;;;;;;;;;;14.60;77.90;;;;;;5071767;28;20588;-79
2023/10/05 01:50:56;;;;;;;;;;;14.60;77.90;;;;;;5068847;28;19944;-79
2023/10/05 01:53:21;;;;;;;;;;;14.60;77.70;;;;;;5069357;28;19919;-79
2023/10/05 01:55:49;;;;;;;;;;;14.70;77.50;;;;;;5068230;28;20553;-79
2023/10/05 01:58:17;;;;;;;;;;;14.70;77.80;;;;;;5073093;28;20559;-79
2023/10/05 02:00:42;;;;;;;;;;;14.60;77.80;;;;;;5088866;28;19916;-78
2023/10/05 02:03:09;;;;;;;;;;;14.60;78.00;;;;;;5068964;28;20339;-79
2023/10/05 02:05:36;;;;;;;;;;;14.50;78.10;;;;;;5072058;28;19920;-79
2023/10/05 02:08:02;;;;;;;;;;;14.50;78.00;;;;;;5074714;28;20392;-79
2023/10/05 02:10:32;;;;;;;;;;;14.50;78.20;;;;;;5072272;28;19920;-79
2023/10/05 02:13:00;;;;;;;;;;;14.50;78.30;;;;;;5071743;28;19913;-79
2023/10/05 02:15:29;;;;;;;;;;;14.50;78.50;;;;;;5058890;28;20565;-79
2023/10/05 02:17:56;;;;;;;;;;;14.50;78.20;;;;;;5070176;28;20011;-79
2023/10/05 02:20:38;;;;;;;;;;;14.50;78.30;;;;;;5067804;28;19919;-79
2023/10/05 02:23:17;;;;;;;;;;;14.40;78.70;;;;;;5072597;28;20387;-78
2023/10/05 02:25:43;;;;;;;;;;;14.40;78.80;;;;;;5072870;28;19913;-79
2023/10/05 02:28:08;;;;;;;;;;;14.30;79.00;;;;;;5072535;28;19973;-79
2023/10/05 02:30:36;;;;;;;;;;;14.40;78.80;;;;;;5070025;28;19928;-79
2023/10/05 02:33:09;;;;;;;;;;;14.40;78.50;;;;;;5071090;28;19928;-79
2023/10/05 02:35:38;;;;;;;;;;;14.40;79.10;;;;;;5069547;28;20014;-78
2023/10/05 02:38:06;;;;;;;;;;;14.50;78.40;;;;;;5069135;28;19995;-77
2023/10/05 02:40:46;;;;;;;;;;;14.40;78.80;;;;;;5060333;28;19912;-79
2023/10/05 02:43:15;;;;;;;;;;;14.30;79.00;;;;;;5069011;28;19916;-78
2023/10/05 02:45:41;;;;;;;;;;;14.30;79.20;;;;;;5099793;28;19909;-79
2023/10/05 02:48:10;;;;;;;;;;;14.30;79.00;;;;;;5071866;28;20965;-79
2023/10/05 02:50:38;;;;;;;;;;;14.40;78.90;;;;;;5064773;28;19924;-79
2023/10/05 02:53:06;;;;;;;;;;;14.40;79.40;;;;;;5075919;28;19916;-79
2023/10/05 02:55:36;;;;;;;;;;;14.40;79.00;;;;;;5066374;28;19917;-78
2023/10/05 02:58:03;;;;;;;;;;;14.50;78.70;;;;;;5063358;28;19913;-79
2023/10/05 03:00:29;;;;;;;;;;;14.50;78.50;;;;;;5066317;28;19916;-79
2023/10/05 03:02:54;;;;;;;;;;;14.30;79.00;;;;;;5072345;28;19981;-79
2023/10/05 03:05:20;;;;;;;;;;;14.30;79.30;;;;;;5071018;28;19913;-79
2023/10/05 03:07:48;;;;;;;;;;;14.30;79.50;;;;;;5065153;28;20003;-80
2023/10/05 03:10:16;;;;;;;;;;;14.40;79.00;;;;;;5073672;28;19923;-80
2023/10/05 03:12:42;;;;;;;;;;;14.30;79.10;;;;;;5072869;28;19919;-79
2023/10/05 03:15:08;;;;;;;;;;;14.30;79.20;;;;;;5066686;28;19977;-79
2023/10/05 03:17:36;;;;;;;;;;;14.40;79.00;;;;;;5066343;28;19916;-79
2023/10/05 03:20:08;;;;;;;;;;;14.40;79.10;;;;;;5068236;28;20273;-80
2023/10/05 03:22:34;;;;;;;;;;;14.40;79.30;;;;;;5069132;28;19920;-80
2023/10/05 03:24:59;;;;;;;;;;;14.40;78.80;;;;;;5072903;28;19919;-80
2023/10/05 03:27:25;;;;;;;;;;;14.30;79.10;;;;;;5073277;28;19920;-80
2023/10/05 03:29:52;;;;;;;;;;;14.30;79.00;;;;;;5072320;28;19912;-79
2023/10/05 03:32:19;;;;;;;;;;;14.30;79.20;;;;;;5066973;28;19995;-79
2023/10/05 03:34:53;;;;;;;;;;;14.20;79.50;;;;;;5067549;28;20031;-79
2023/10/05 03:37:18;;;;;;;;;;;14.20;79.70;;;;;;5069371;28;19944;-78
2023/10/05 03:42:28;;;;;;;;;;;14.10;79.80;;;;;;5073635;28;19928;-79
2023/10/05 03:47:28;;;;;;;;;;;14.10;80.10;;;;;;5068905;28;20348;-79
2023/10/05 03:49:57;;;;;;;;;;;14.10;80.30;;;;;;5070394;28;19956;-78
2023/10/05 03:52:23;;;;;;;;;;;14.00;80.40;;;;;;5071839;28;19959;-79
2023/10/05 03:54:49;;;;;;;;;;;14.10;80.40;;;;;;5071913;28;19912;-79
2023/10/05 03:57:16;;;;;;;;;;;14.10;80.40;;;;;;5072049;28;19995;-79
2023/10/05 03:59:42;;;;;;;;;;;14.00;80.90;;;;;;5063811;28;19913;-79
2023/10/05 04:02:09;;;;;;;;;;;14.00;80.80;;;;;;5068000;28;20285;-79
2023/10/05 04:04:35;;;;;;;;;;;13.90;80.90;;;;;;5069212;28;19912;-80
2023/10/05 04:07:01;;;;;;;;;;;13.90;81.00;;;;;;5068160;28;19912;-81
2023/10/05 04:09:28;;;;;;;;;;;13.90;81.20;;;;;;5075647;28;19955;-80
2023/10/05 04:11:55;;;;;;;;;;;13.90;81.10;;;;;;5072354;28;19908;-80
2023/10/05 04:14:22;;;;;;;;;;;13.90;81.40;;;;;;5071498;28;19920;-78
2023/10/05 04:16:48;;;;;;;;;;;13.80;81.30;;;;;;5064654;28;19917;-80
2023/10/05 04:19:14;;;;;;;;;;;13.90;81.40;;;;;;5063982;28;19913;-79
2023/10/05 04:21:40;;;;;;;;;;;13.90;81.20;;;;;;5063479;28;19996;-80
2023/10/05 04:24:06;;;;;;;;;;;13.90;81.30;;;;;;5063714;28;19908;-80
2023/10/05 04:26:37;;;;;;;;;;;13.90;81.10;;;;;;5071800;28;19908;-79
2023/10/05 04:29:08;;;;;;;;;;;14.00;81.00;;;;;;5075841;28;19967;-80
2023/10/05 04:31:36;;;;;;;;;;;13.80;81.10;;;;;;5070381;28;19962;-80
2023/10/05 04:34:05;;;;;;;;;;;13.80;81.60;;;;;;5072164;28;19940;-79
2023/10/05 04:36:31;;;;;;;;;;;13.80;81.40;;;;;;5070095;28;19923;-79
2023/10/05 04:38:56;;;;;;;;;;;13.80;81.50;;;;;;5074154;28;19917;-80
2023/10/05 04:41:28;;;;;;;;;;;13.70;81.70;;;;;;5072179;28;19966;-79
2023/10/05 04:43:57;;;;;;;;;;;13.70;81.60;;;;;;5066526;28;20273;-79
2023/10/05 04:46:22;;;;;;;;;;;13.60;81.90;;;;;;5075849;28;19999;-80
2023/10/05 04:51:43;;;;;;;;;;;13.60;82.10;;;;;;5058492;28;19966;-79
2023/10/05 04:54:12;;;;;;;;;;;13.60;82.00;;;;;;5071888;28;20385;-80
2023/10/05 05:04:41;;;;;;;;;;;13.60;82.30;;;;;;5070290;28;19913;-81
2023/10/05 05:07:07;;;;;;;;;;;13.60;82.50;;;;;;5068322;28;19913;-79
2023/10/05 05:09:34;;;;;;;;;;;13.60;82.20;;;;;;5067283;28;19917;-78
2023/10/05 05:12:08;;;;;;;;;;;13.60;82.10;;;;;;5062727;28;19908;-79
2023/10/05 05:14:35;;;;;;;;;;;13.60;82.10;;;;;;5071804;28;20369;-80
2023/10/05 05:17:02;;;;;;;;;;;13.70;82.00;;;;;;5072862;28;20212;-78
2023/10/05 05:19:28;;;;;;;;;;;13.60;81.90;;;;;;5072547;28;20388;-79
2023/10/05 05:21:54;;;;;;;;;;;13.60;82.40;;;;;;5075124;28;20362;-78
2023/10/05 05:24:19;;;;;;;;;;;13.50;82.60;;;;;;5076125;28;19915;-79
2023/10/05 05:26:46;;;;;;;;;;;13.50;82.70;;;;;;5072391;28;20365;-80
2023/10/05 05:29:13;;;;;;;;;;;13.60;82.30;;;;;;5072645;28;20011;-81
2023/10/05 05:31:39;;;;;;;;;;;13.60;82.40;;;;;;5073362;28;19912;-80
2023/10/05 05:34:06;;;;;;;;;;;13.60;82.30;;;;;;5063674;28;19913;-81
2023/10/05 05:36:36;;;;;;;;;;;13.60;82.60;;;;;;5075216;28;19999;-80
2023/10/05 05:39:04;;;;;;;;;;;13.50;82.50;;;;;;5069841;28;19957;-80
2023/10/05 05:41:30;;;;;;;;;;;13.60;82.60;;;;;;5060202;28;19909;-81
2023/10/05 05:43:56;;;;;;;;;;;13.50;82.60;;;;;;5073782;28;20369;-79
2023/10/05 05:46:21;;;;;;;;;;;13.60;82.60;;;;;;5073040;28;20366;-83
2023/10/05 05:48:52;;;;;;;;;;;13.60;82.40;;;;;;5067107;28;19921;-81
2023/10/05 05:51:21;;;;;;;;;;;13.60;82.70;;;;;;5067386;28;20452;-80
2023/10/05 05:53:47;;;;;;;;;;;13.50;82.80;;;;;;5065446;28;20386;-81
2023/10/05 05:56:19;;;;;;;;;;;13.50;83.00;;;;;;5066759;28;19916;-81
2023/10/05 05:58:47;;;;;;;;;;;13.50;83.30;;;;;;5067038;28;19920;-80
2023/10/05 06:01:16;;;;;;;;;;;13.50;83.00;;;;;;5061192;28;19939;-81
2023/10/05 06:03:53;;;;;;;;;;;13.50;83.10;;;;;;5071597;28;21466;-78
2023/10/05 06:06:21;;;;;;;;;;;13.50;83.10;;;;;;5071532;28;19999;-82
2023/10/05 06:08:47;;;;;;;;;;;13.60;82.80;;;;;;5066242;28;19921;-79
2023/10/05 06:11:13;;;;;;;;;;;13.60;82.70;;;;;;5068768;28;19923;-81
2023/10/05 06:13:38;;;;;;;;;;;13.60;82.80;;;;;;5071423;28;19990;-81
2023/10/05 06:16:10;;;;;;;;;;;13.60;82.70;;;;;;5070608;28;20385;-81
2023/10/05 06:18:38;;;;;;;;;;;13.60;83.00;;;;;;5070474;28;19912;-82
2023/10/05 06:21:04;;;;;;;;;;;13.80;82.80;;;;;;5070783;28;19979;-81
2023/10/05 06:23:32;;;;;;;;;;;13.80;82.70;;;;;;5071811;28;19909;-81
2023/10/05 06:25:59;;;;;;;;;;;13.80;82.70;;;;;;5068469;28;19921;-84
2023/10/05 06:28:25;;;;;;;;;;;13.80;82.60;;;;;;5066158;28;19967;-81
2023/10/05 06:30:52;;;;;;;;;;;13.80;82.50;;;;;;5065747;28;19958;-82
2023/10/05 06:33:17;;;;;;;;;;;13.90;82.60;;;;;;5070183;28;19923;-82
2023/10/05 06:35:44;;;;;;;;;;;13.80;82.70;;;;;;5070237;28;20309;-81
2023/10/05 06:38:09;;;;;;;;;;;13.90;82.40;;;;;;5070829;28;19936;-82
2023/10/05 06:40:34;;;;;;;;;;;14.00;82.40;;;;;;5074075;28;19910;-80
2023/10/05 06:43:00;;;;;;;;;;;14.00;82.20;;;;;;5072856;28;19916;-82
2023/10/05 06:45:25;;;;;;;;;;;14.10;82.10;;;;;;5068855;28;19916;-84
2023/10/05 06:47:51;;;;;;;;;;;14.10;82.00;;;;;;5067401;28;19919;-83
2023/10/05 06:50:17;;;;;;;;;;;14.10;82.30;;;;;;5067603;28;20403;-84
2023/10/05 06:52:43;;;;;;;;;;;14.10;81.80;;;;;;5070810;28;20007;-81
2023/10/05 06:55:12;;;;;;;;;;;14.00;81.90;;;;;;5069231;28;20694;-84
2023/10/05 06:57:50;;;;;;;;;;;14.00;82.10;;;;;;5068887;28;19917;-82
2023/10/05 07:00:20;;;;;;;;;;;14.00;82.30;;;;;;5066624;28;19974;-80
2023/10/05 07:02:46;;;;;;;;;;;14.00;82.40;;;;;;5072899;28;19919;-81
2023/10/05 07:05:12;;;;;;;;;;;14.10;82.40;;;;;;5071601;28;19913;-79
2023/10/05 07:07:38;;;;;;;;;;;14.10;81.80;;;;;;5069349;28;20329;-80
2023/10/05 07:10:04;;;;;;;;;;;14.10;81.80;;;;;;5069146;28;20289;-79
2023/10/05 07:12:35;;;;;;;;;;;14.20;81.70;;;;;;5068738;28;19943;-83
2023/10/05 07:15:01;;;;;;;;;;;14.10;81.30;;;;;;5067958;28;20297;-80
2023/10/05 07:17:27;;;;;;;;;;;14.20;81.40;;;;;;5068821;28;19917;-82
2023/10/05 07:19:53;;;;;;;;;;;14.20;81.40;;;;;;5070637;28;19920;-81
2023/10/05 07:22:19;;;;;;;;;;;14.20;81.40;;;;;;5069481;28;20001;-81
2023/10/05 07:24:44;;;;;;;;;;;14.20;81.60;;;;;;5069159;28;20041;-81
2023/10/05 07:27:10;;;;;;;;;;;14.20;81.20;;;;;;5067668;28;19993;-79
2023/10/05 07:29:36;;;;;;;;;;;14.20;81.30;;;;;;5066451;28;20361;-81
2023/10/05 07:32:04;;;;;;;;;;;14.30;81.20;;;;;;5068726;28;20297;-81
2023/10/05 07:34:30;;;;;;;;;;;14.30;81.20;;;;;;5068909;28;19912;-79
2023/10/05 07:36:57;;;;;;;;;;;14.30;81.00;;;;;;5069181;28;20347;-79
2023/10/05 07:39:23;;;;;;;;;;;14.30;81.20;;;;;;5068074;28;19919;-80
2023/10/05 07:41:49;;;;;;;;;;;14.50;81.10;;;;;;5067497;28;19959;-81
2023/10/05 07:44:15;;;;;;;;;;;14.50;80.90;;;;;;5071114;28;20528;-81
2023/10/05 07:46:43;;;;;;;;;;;14.60;80.80;;;;;;5074835;28;19952;-81
2023/10/05 07:49:08;;;;;;;;;;;14.60;80.50;;;;;;5071634;28;19924;-82
2023/10/05 07:51:34;;;;;;;;;;;14.60;80.30;;;;;;5074391;28;19915;-82
2023/10/05 07:54:00;;;;;;;;;;;14.70;80.30;;;;;;5073351;28;19980;-82
2023/10/05 07:56:25;;;;;;;;;;;14.60;80.40;;;;;;5074112;28;20340;-82
2023/10/05 07:58:51;;;;;;;;;;;14.60;80.50;;;;;;5074066;28;20393;-81
2023/10/05 08:01:18;;;;;;;;;;;14.60;80.60;;;;;;5069596;28;20297;-82
2023/10/05 08:03:44;;;;;;;;;;;14.60;80.30;;;;;;5075673;28;19913;-82
2023/10/05 08:06:14;;;;;;;;;;;14.60;80.50;;;;;;5076857;28;19920;-80
2023/10/05 08:08:41;;;;;;;;;;;14.60;80.90;;;;;;5070896;28;20450;-81
2023/10/05 08:11:06;;;;;;;;;;;14.60;80.80;;;;;;5079102;28;19912;-82
2023/10/05 08:13:32;;;;;;;;;;;14.60;80.50;;;;;;5078319;28;19940;-81
2023/10/05 08:15:57;;;;;;;;;;;14.70;80.60;;;;;;5077185;28;20408;-81
2023/10/05 08:18:23;;;;;;;;;;;14.70;80.50;;;;;;5077186;28;19950;-79
2023/10/05 08:20:49;;;;;;;;;;;14.80;80.30;;;;;;5073755;28;20543;-81
2023/10/05 08:23:15;;;;;;;;;;;14.80;80.20;;;;;;5076913;28;19916;-81
2023/10/05 08:25:41;;;;;;;;;;;14.80;80.40;;;;;;5078413;28;19912;-81
2023/10/05 08:28:09;;;;;;;;;;;14.80;80.70;;;;;;5075339;28;19908;-86
2023/10/05 08:30:45;;;;;;;;;;;14.90;80.00;;;;;;5072419;28;20003;-79
2023/10/05 08:33:19;;;;;;;;;;;14.90;80.10;;;;;;5087013;28;19923;-81
2023/10/05 08:35:44;;;;;;;;;;;15.00;80.00;;;;;;5084602;28;19912;-82
2023/10/05 08:38:15;;;;;;;;;;;15.00;79.70;;;;;;5081201;28;19939;-82
2023/10/05 08:40:42;;;;;;;;;;;15.00;79.90;;;;;;5085571;28;19912;-83
2023/10/05 08:43:10;;;;;;;;;;;15.00;80.10;;;;;;5084395;28;19927;-84
2023/10/05 08:45:38;;;;;;;;;;;15.10;80.40;;;;;;5083897;28;19916;-83
2023/10/05 08:48:08;;;;;;;;;;;15.30;79.50;;;;;;5084155;28;20003;-83
2023/10/05 08:50:35;;;;;;;;;;;15.30;79.80;;;;;;5090577;28;19916;-83
2023/10/05 08:53:01;;;;;;;;;;;15.30;79.90;;;;;;5083278;28;19936;-82
2023/10/05 08:55:30;;;;;;;;;;;15.40;79.80;;;;;;5083300;28;19916;-83
2023/10/05 08:57:55;;;;;;;;;;;15.50;79.30;;;;;;5086425;28;19928;-84
2023/10/05 09:00:38;;;;;;;;;;;15.50;79.10;;;;;;5082419;28;19909;-83
2023/10/05 09:03:06;;;;;;;;;;;15.50;78.90;;;;;;5078991;28;19928;-82
2023/10/05 09:05:33;;;;;;;;;;;15.60;78.30;;;;;;5077811;28;19930;-83
2023/10/05 09:07:59;;;;;;;;;;;15.50;78.60;;;;;;5079756;28;19912;-83
2023/10/05 09:10:29;;;;;;;;;;;15.60;78.40;;;;;;5078620;28;19970;-85
2023/10/05 09:12:58;;;;;;;;;;;15.60;78.20;;;;;;5094382;28;19979;-85
2023/10/05 09:17:58;;;;;;;;;;;15.60;78.70;;;;;;5074998;28;19913;-86
2023/10/05 09:20:24;;;;;;;;;;;15.70;78.10;;;;;;5078349;28;19912;-86
2023/10/05 09:22:51;;;;;;;;;;;15.80;78.00;;;;;;5077189;28;19999;-86
2023/10/05 09:25:26;;;;;;;;;;;15.80;78.00;;;;;;5079345;28;19917;-86
2023/10/05 09:27:52;;;;;;;;;;;16.00;78.00;;;;;;5079382;28;19916;-85
2023/10/05 09:30:21;;;;;;;;;;;15.90;77.90;;;;;;5076858;28;20016;-87
2023/10/05 09:32:48;;;;;;;;;;;16.00;77.80;;;;;;5075712;28;19912;-82
2023/10/05 09:35:24;;;;;;;;;;;16.10;77.70;;;;;;5073123;28;19987;-83
2023/10/05 09:37:50;;;;;;;;;;;16.30;77.10;;;;;;5072291;28;20365;-83
2023/10/05 09:40:17;;;;;;;;;;;16.30;76.60;;;;;;5078906;28;19962;-81
2023/10/05 09:42:44;;;;;;;;;;;16.30;76.90;;;;;;5077508;28;19964;-82
2023/10/05 09:45:12;;;;;;;;;;;16.30;76.40;;;;;;5071551;28;19985;-83
2023/10/05 09:47:38;;;;;;;;;;;16.30;76.20;;;;;;5077267;28;19923;-82
2023/10/05 09:50:12;;;;;;;;;;;16.30;76.80;;;;;;5076270;28;19962;-84
2023/10/05 09:52:38;;;;;;;;;;;16.30;76.60;;;;;;5073450;28;20305;-84
2023/10/05 09:55:05;;;;;;;;;;;16.30;76.60;;;;;;5070624;28;19912;-87
2023/10/05 09:57:41;;;;;;;;;;;16.30;76.40;;;;;;5066240;28;19916;-86
2023/10/05 10:02:59;;;;;;;;;;;16.30;76.50;;;;;;5048673;28;19932;-85
2023/10/05 10:05:44;;;;;;;;;;;16.40;76.10;;;;;;5081641;28;19912;-85
2023/10/05 10:08:10;;;;;;;;;;;16.40;76.40;;;;;;5066525;28;19919;-85
2023/10/05 10:10:41;;;;;;;;;;;16.40;76.50;;;;;;5073757;28;20015;-85
2023/10/05 10:13:13;;;;;;;;;;;16.50;76.30;;;;;;5070055;28;20058;-85
2023/10/05 10:15:39;;;;;;;;;;;16.60;76.40;;;;;;5072200;28;20011;-85
2023/10/05 10:18:14;;;;;;;;;;;16.60;75.80;;;;;;5067562;28;19985;-84
2023/10/05 10:20:47;;;;;;;;;;;16.50;76.10;;;;;;5073936;28;19912;-84
2023/10/05 10:23:21;;;;;;;;;;;16.60;76.20;;;;;;5080876;28;19980;-83
2023/10/05 10:25:50;;;;;;;;;;;16.60;76.10;;;;;;5076409;28;19929;-85
2023/10/05 10:28:56;;;;;;;;;;;16.60;76.50;;;;;;5080392;28;19954;-85
2023/10/05 10:31:34;;;;;;;;;;;16.60;76.20;;;;;;5091100;28;19999;-83
2023/10/05 10:34:11;;;;;;;;;;;16.70;75.50;;;;;;5082034;28;19919;-84
2023/10/05 10:36:51;;;;;;;;;;;16.60;75.30;;;;;;5079432;28;19928;-86
2023/10/05 10:39:23;;;;;;;;;;;16.60;76.00;;;;;;5083014;28;19912;-81
2023/10/05 10:42:19;;;;;;;;;;;16.60;75.40;;;;;;5082207;28;19927;-84
2023/10/05 10:47:16;;;;;;;;;;;16.70;75.00;;;;;;5089939;28;19961;-85
2023/10/05 10:50:25;;;;;;;;;;;16.70;75.50;;;;;;5074910;28;20440;-84
2023/10/05 10:52:50;;;;;;;;;;;16.60;75.60;;;;;;5077242;28;19931;-85
2023/10/05 10:55:20;;;;;;;;;;;16.70;75.90;;;;;;5080836;28;20325;-85
2023/10/05 10:57:53;;;;;;;;;;;16.80;75.90;;;;;;5076852;28;19912;-86
2023/10/05 11:03:10;;;;;;;;;;;17.00;75.50;;;;;;5078498;28;20447;-84
2023/10/05 11:05:39;;;;;;;;;;;17.00;75.10;;;;;;5078361;28;19960;-85
2023/10/05 11:08:08;;;;;;;;;;;17.00;74.40;;;;;;5080081;28;19916;-84
2023/10/05 11:10:33;;;;;;;;;;;16.90;75.50;;;;;;5079547;28;19916;-84
2023/10/05 11:13:14;;;;;;;;;;;17.00;75.00;;;;;;5073365;28;20007;-84
2023/10/05 11:16:26;;;;;;;;;;;17.00;74.80;;;;;;5073652;28;19927;-85
2023/10/05 11:18:57;;;;;;;;;;;17.00;74.30;;;;;;5079921;28;19939;-84
2023/10/05 11:21:25;;;;;;;;;;;17.00;73.70;;;;;;5082834;28;19920;-81
2023/10/05 11:24:00;;;;;;;;;;;17.00;73.70;;;;;;5079323;28;19919;-80
2023/10/05 11:28:58;;;;;;;;;;;17.00;73.60;;;;;;5084051;28;19932;-82
2023/10/05 11:31:26;;;;;;;;;;;17.00;74.10;;;;;;5085228;28;19980;-83
2023/10/05 11:33:56;;;;;;;;;;;17.10;73.30;;;;;;5088217;28;19913;-84
2023/10/05 11:36:27;;;;;;;;;;;17.20;72.80;;;;;;5086852;28;19923;-83
2023/10/05 11:38:57;;;;;;;;;;;17.20;72.60;;;;;;5090667;28;19913;-84
2023/10/05 11:41:33;;;;;;;;;;;17.30;72.90;;;;;;5077298;28;19919;-80
2023/10/05 11:43:59;;;;;;;;;;;17.30;72.50;;;;;;5072855;28;19957;-81
2023/10/05 11:46:46;;;;;;;;;;;17.20;72.70;;;;;;5072525;28;20019;-83
2023/10/05 11:49:13;;;;;;;;;;;17.30;72.60;;;;;;5073174;28;19998;-83
2023/10/05 11:51:41;;;;;;;;;;;17.40;72.20;;;;;;5075379;28;19916;-80
2023/10/05 11:54:10;;;;;;;;;;;17.30;72.30;;;;;;5072003;28;19932;-80
2023/10/05 11:56:38;;;;;;;;;;;17.40;72.40;;;;;;5079014;28;19913;-80
2023/10/05 11:59:05;;;;;;;;;;;17.40;71.70;;;;;;5072275;28;20109;-80
2023/10/05 12:01:32;;;;;;;;;;;17.60;71.20;;;;;;5070266;28;20317;-80
2023/10/05 12:03:57;;;;;;;;;;;17.60;71.30;;;;;;5070852;28;19920;-80
2023/10/05 12:06:25;;;;;;;;;;;17.60;71.40;;;;;;5067742;28;19916;-80
2023/10/05 12:09:00;;;;;;;;;;;17.60;71.70;;;;;;5072117;28;19963;-83
2023/10/05 12:11:29;;;;;;;;;;;17.50;71.90;;;;;;5072667;28;19934;-81
2023/10/05 12:13:57;;;;;;;;;;;17.50;71.80;;;;;;5073259;28;19916;-80
2023/10/05 12:16:26;;;;;;;;;;;17.50;71.80;;;;;;5069078;28;20003;-81
2023/10/05 12:18:54;;;;;;;;;;;17.50;72.30;;;;;;5068454;28;19912;-81
2023/10/05 12:21:22;;;;;;;;;;;17.50;71.70;;;;;;5068745;28;19920;-80
2023/10/05 12:23:48;;;;;;;;;;;17.50;71.70;;;;;;5070219;28;19920;-82
2023/10/05 12:26:15;;;;;;;;;;;17.50;71.80;;;;;;5071865;28;20011;-81
2023/10/05 12:28:41;;;;;;;;;;;17.60;71.00;;;;;;5072303;28;19913;-81
2023/10/05 12:31:09;;;;;;;;;;;17.60;70.70;;;;;;5070698;28;19920;-83
2023/10/05 12:33:36;;;;;;;;;;;17.70;70.30;;;;;;5079860;28;19912;-82
2023/10/05 12:36:07;;;;;;;;;;;17.70;70.00;;;;;;5073994;28;19920;-82
2023/10/05 12:38:33;;;;;;;;;;;17.70;70.60;;;;;;5076306;28;19919;-79
2023/10/05 12:41:12;;;;;;;;;;;17.60;70.90;;;;;;5076626;28;19912;-80
2023/10/05 12:43:39;;;;;;;;;;;17.50;71.00;;;;;;5072774;28;19921;-82
2023/10/05 12:46:09;;;;;;;;;;;17.50;71.10;;;;;;5080602;28;20336;-83
2023/10/05 12:48:35;;;;;;;;;;;17.50;70.50;;;;;;5076527;28;19920;-83
2023/10/05 12:51:00;;;;;;;;;;;17.50;70.40;;;;;;5078976;28;19912;-81
2023/10/05 12:53:26;;;;;;;;;;;17.50;70.70;;;;;;5077142;28;19971;-81
2023/10/05 12:55:51;;;;;;;;;;;17.40;70.20;;;;;;5076650;28;19998;-81
2023/10/05 12:58:17;;;;;;;;;;;17.40;70.40;;;;;;5077047;28;19995;-82
2023/10/05 13:00:44;;;;;;;;;;;17.50;70.30;;;;;;5081250;28;19916;-82
2023/10/05 13:03:12;;;;;;;;;;;17.50;70.50;;;;;;5075370;28;19979;-80
2023/10/05 13:05:46;;;;;;;;;;;17.50;69.40;;;;;;5073345;28;20007;-83
2023/10/05 13:08:16;;;;;;;;;;;17.50;70.10;;;;;;5072324;28;19920;-82
2023/10/05 13:10:43;;;;;;;;;;;17.40;70.50;;;;;;5077610;28;19912;-83
2023/10/05 13:13:17;;;;;;;;;;;17.40;71.00;;;;;;5014565;28;1763570;-84
2023/10/05 13:15:44;;;;;;;;;;;17.40;70.90;;;;;;5080686;28;19916;-84
2023/10/05 13:18:17;;;;;;;;;;;17.40;70.90;;;;;;5084452;28;19909;-84
2023/10/05 13:20:50;;;;;;;;;;;17.60;70.00;;;;;;5084306;28;19915;-86
2023/10/05 13:23:19;;;;;;;;;;;17.70;69.10;;;;;;5079520;28;20014;-84
2023/10/05 13:25:45;;;;;;;;;;;17.70;69.70;;;;;;5080519;28;19950;-83
2023/10/05 13:28:19;;;;;;;;;;;17.70;70.20;;;;;;5072520;28;20377;-87
2023/10/05 13:30:50;;;;;;;;;;;17.60;69.90;;;;;;5071734;28;19924;-86
2023/10/05 13:36:14;;;;;;;;;;;17.60;70.00;;;;;;5050264;28;19947;-85
2023/10/05 13:38:40;;;;;;;;;;;17.70;70.30;;;;;;5078773;28;19920;-84
2023/10/05 13:43:32;;;;;;;;;;;17.80;69.50;;;;;;5073787;28;19944;-86
2023/10/05 13:45:59;;;;;;;;;;;17.90;69.60;;;;;;5073769;28;19917;-81
2023/10/05 13:48:29;;;;;;;;;;;17.90;69.30;;;;;;5075880;28;19920;-80
2023/10/05 13:50:55;;;;;;;;;;;17.80;69.20;;;;;;5077822;28;19922;-86
2023/10/05 13:53:21;;;;;;;;;;;17.80;69.50;;;;;;5077728;28;19916;-85
2023/10/05 13:55:48;;;;;;;;;;;17.90;69.20;;;;;;5076687;28;19958;-85
2023/10/05 13:58:14;;;;;;;;;;;17.80;69.30;;;;;;5072741;28;19930;-85
2023/10/05 14:00:41;;;;;;;;;;;17.90;69.30;;;;;;5072880;28;19956;-86
2023/10/05 14:03:07;;;;;;;;;;;17.80;68.90;;;;;;5073953;28;20061;-85
2023/10/05 14:05:32;;;;;;;;;;;17.80;69.50;;;;;;5074952;28;19948;-84
2023/10/05 14:07:58;;;;;;;;;;;17.80;69.20;;;;;;5076593;28;19936;-84
2023/10/05 14:10:24;;;;;;;;;;;17.80;69.10;;;;;;5076836;28;19999;-85
2023/10/05 14:12:50;;;;;;;;;;;17.80;69.40;;;;;;5078989;28;20270;-85
2023/10/05 14:15:19;;;;;;;;;;;17.90;70.00;;;;;;5080567;28;19923;-86
2023/10/05 14:17:46;;;;;;;;;;;17.90;69.30;;;;;;5079145;28;20354;-86
2023/10/05 14:20:13;;;;;;;;;;;17.80;69.40;;;;;;5083116;28;19919;-85
2023/10/05 14:22:39;;;;;;;;;;;17.80;69.20;;;;;;5082320;28;20412;-85
2023/10/05 14:25:07;;;;;;;;;;;17.80;69.30;;;;;;5081379;28;19915;-86
2023/10/05 14:27:36;;;;;;;;;;;17.80;69.50;;;;;;5082377;28;19912;-86
2023/10/05 14:30:07;;;;;;;;;;;17.80;69.50;;;;;;5084308;28;19940;-85
2023/10/05 14:32:36;;;;;;;;;;;17.80;69.00;;;;;;5080466;28;20385;-86
2023/10/05 14:35:06;;;;;;;;;;;17.80;69.40;;;;;;5081886;28;19908;-86
2023/10/05 14:37:31;;;;;;;;;;;17.80;69.60;;;;;;5081987;28;19917;-86
2023/10/05 14:39:58;;;;;;;;;;;17.80;69.70;;;;;;5082329;28;19919;-86
2023/10/05 14:42:24;;;;;;;;;;;17.90;69.10;;;;;;5079148;28;19936;-86
2023/10/05 14:44:50;;;;;;;;;;;18.00;69.00;;;;;;5088853;28;19968;-86
2023/10/05 14:47:18;;;;;;;;;;;18.00;69.20;;;;;;5092489;28;19916;-87
2023/10/05 14:49:44;;;;;;;;;;;18.00;69.10;;;;;;5089165;28;19923;-87
2023/10/05 14:52:11;;;;;;;;;;;18.00;68.70;;;;;;5078046;28;19912;-85
2023/10/05 14:54:37;;;;;;;;;;;17.80;69.30;;;;;;5080959;28;19908;-86
2023/10/05 14:57:04;;;;;;;;;;;17.80;69.50;;;;;;5085820;28;19916;-86
2023/10/05 14:59:29;;;;;;;;;;;17.70;70.10;;;;;;5083877;28;19909;-86
2023/10/05 15:01:58;;;;;;;;;;;17.70;70.20;;;;;;5083918;28;19912;-86
2023/10/05 15:04:24;;;;;;;;;;;17.70;70.40;;;;;;5079084;28;19916;-86
2023/10/05 15:06:49;;;;;;;;;;;17.70;70.00;;;;;;5079865;28;20224;-86